createdAt,value
2018-06-30T00:01:19.347Z,11.47
2018-06-30T00:03:54.651Z,11.57
2018-06-30T00:06:28.643Z,12.03
2018-06-30T00:08:57.738Z,12.33
2018-06-30T00:11:26.218Z,12.87
2018-06-30T00:13:55.311Z,12.57
2018-06-30T00:16:24.763Z,11.57
2018-06-30T00:18:53.262Z,12.47
2018-06-30T00:21:21.967Z,12.87
2018-06-30T00:23:50.528Z,12.23
2018-06-30T00:26:19.321Z,12.77
2018-06-30T00:28:48.157Z,12.93
2018-06-30T00:31:16.954Z,12.70
2018-06-30T00:33:45.669Z,12.83
2018-06-30T00:36:14.164Z,13.77
2018-06-30T00:38:42.650Z,13.07
2018-06-30T00:41:11.575Z,12.37
2018-06-30T00:43:40.098Z,12.90
2018-06-30T00:46:09.499Z,13.67
2018-06-30T00:48:38.030Z,12.80
2018-06-30T00:51:07.497Z,13.13
2018-06-30T00:53:35.963Z,13.17
2018-06-30T00:56:05.550Z,13.30
2018-06-30T00:58:34.034Z,13.63
2018-06-30T01:01:02.838Z,14.00
2018-06-30T01:03:31.908Z,13.07
2018-06-30T01:06:00.603Z,14.63
2018-06-30T01:08:29.102Z,14.13
2018-06-30T01:10:57.734Z,14.10
2018-06-30T01:13:26.248Z,13.77
2018-06-30T01:15:54.730Z,13.60
2018-06-30T01:18:23.172Z,12.97
2018-06-30T01:20:51.658Z,14.07
2018-06-30T01:23:20.113Z,13.90
2018-06-30T01:25:48.577Z,14.10
2018-06-30T01:28:17.044Z,13.50
2018-06-30T01:30:45.504Z,13.47
2018-06-30T01:33:13.946Z,13.83
2018-06-30T01:35:42.407Z,13.90
2018-06-30T01:38:10.842Z,12.20
2018-06-30T01:40:39.638Z,12.93
2018-06-30T01:43:08.062Z,12.60
2018-06-30T01:45:36.546Z,13.30
2018-06-30T01:48:05.027Z,12.97
2018-06-30T01:50:33.510Z,12.70
2018-06-30T01:53:01.943Z,12.20
2018-06-30T01:55:30.437Z,12.97
2018-06-30T01:57:58.882Z,12.83
2018-06-30T02:00:27.357Z,11.10
2018-06-30T02:02:55.834Z,12.17
2018-06-30T02:05:24.317Z,12.70
2018-06-30T02:07:52.778Z,11.70
2018-06-30T02:10:21.246Z,11.20
2018-06-30T02:12:49.670Z,12.80
2018-06-30T02:15:18.462Z,12.00
2018-06-30T02:17:46.901Z,11.93
2018-06-30T02:20:15.398Z,11.83
2018-06-30T02:22:43.882Z,11.23
2018-06-30T02:25:12.350Z,10.90
2018-06-30T02:27:41.160Z,12.17
2018-06-30T02:30:09.986Z,11.23
2018-06-30T02:32:38.805Z,10.40
2018-06-30T02:35:07.264Z,10.73
2018-06-30T02:37:36.139Z,10.20
2018-06-30T02:40:04.887Z,10.77
2018-06-30T02:42:33.330Z,10.80
2018-06-30T02:45:02.164Z,10.53
2018-06-30T02:47:30.615Z,11.43
2018-06-30T02:49:59.084Z,9.97
2018-06-30T02:52:27.885Z,10.07
2018-06-30T02:54:57.459Z,10.13
2018-06-30T02:57:26.253Z,9.60
2018-06-30T02:59:54.724Z,9.37
2018-06-30T03:02:23.227Z,10.20
2018-06-30T03:04:51.752Z,10.80
2018-06-30T03:07:20.224Z,10.07
2018-06-30T03:09:48.671Z,9.90
2018-06-30T03:12:17.146Z,10.13
2018-06-30T03:14:45.579Z,10.83
2018-06-30T03:17:14.026Z,10.17
2018-06-30T03:19:42.482Z,10.50
2018-06-30T03:22:24.419Z,9.50
2018-06-30T03:24:55.265Z,10.93
2018-06-30T03:27:33.780Z,10.23
2018-06-30T03:30:02.276Z,9.73
2018-06-30T03:32:30.735Z,9.13
2018-06-30T03:35:00.113Z,9.33
2018-06-30T03:37:28.881Z,9.77
2018-06-30T03:39:57.394Z,8.90
2018-06-30T03:42:25.859Z,9.33
2018-06-30T03:44:54.315Z,9.07
2018-06-30T03:47:22.739Z,8.53
2018-06-30T03:49:51.277Z,8.37
2018-06-30T03:52:20.071Z,8.97
2018-06-30T03:54:48.886Z,8.57
2018-06-30T03:57:17.314Z,7.73
2018-06-30T03:59:45.792Z,8.00
2018-06-30T04:02:14.325Z,8.57
2018-06-30T04:04:42.786Z,8.20
2018-06-30T04:07:11.356Z,7.87
2018-06-30T04:09:39.817Z,8.47
2018-06-30T04:12:08.282Z,7.17
2018-06-30T04:14:37.102Z,7.23
2018-06-30T04:17:05.614Z,7.07
2018-06-30T04:19:34.076Z,7.00
2018-06-30T04:22:02.592Z,7.00
2018-06-30T04:24:31.182Z,6.67
2018-06-30T04:26:59.731Z,6.90
2018-06-30T04:29:29.094Z,7.17
2018-06-30T04:31:57.525Z,7.13
2018-06-30T04:34:25.999Z,6.63
2018-06-30T04:36:55.138Z,5.90
2018-06-30T04:39:23.866Z,6.00
2018-06-30T04:41:52.343Z,6.50
2018-06-30T04:44:20.778Z,6.30
2018-06-30T04:46:49.263Z,6.30
2018-06-30T04:49:18.043Z,6.23
2018-06-30T04:51:46.499Z,5.87
2018-06-30T04:54:14.948Z,5.70
2018-06-30T04:56:43.415Z,5.40
2018-06-30T04:59:11.849Z,5.47
2018-06-30T05:01:40.306Z,6.03
2018-06-30T05:04:08.821Z,4.90
2018-06-30T05:06:37.279Z,4.47
2018-06-30T05:09:07.369Z,4.77
2018-06-30T05:11:35.867Z,4.70
2018-06-30T05:14:04.413Z,4.60
2018-06-30T05:16:32.905Z,4.27
2018-06-30T05:19:01.394Z,3.90
2018-06-30T05:21:29.946Z,4.40
2018-06-30T05:23:58.386Z,4.30
2018-06-30T05:26:26.848Z,4.27
2018-06-30T05:28:55.330Z,3.77
2018-06-30T05:31:23.802Z,3.93
2018-06-30T05:33:52.303Z,3.30
2018-06-30T05:36:20.727Z,3.73
2018-06-30T05:38:49.435Z,3.70
2018-06-30T05:41:17.951Z,4.33
2018-06-30T05:43:46.614Z,3.97
2018-06-30T05:46:15.108Z,3.73
2018-06-30T05:48:43.614Z,3.90
2018-06-30T05:51:12.070Z,3.10
2018-06-30T05:53:40.547Z,3.50
2018-06-30T05:56:08.987Z,3.63
2018-06-30T05:58:37.511Z,3.13
2018-06-30T06:01:06.486Z,3.37
2018-06-30T06:03:35.274Z,3.27
2018-06-30T06:06:03.791Z,2.83
2018-06-30T06:08:32.767Z,2.77
2018-06-30T06:11:01.569Z,3.07
2018-06-30T06:13:30.023Z,2.67
2018-06-30T06:15:58.500Z,2.97
2018-06-30T06:18:26.946Z,3.03
2018-06-30T06:20:55.467Z,2.90
2018-06-30T06:23:23.923Z,2.60
2018-06-30T06:25:52.464Z,2.93
2018-06-30T06:28:21.078Z,3.10
2018-06-30T06:30:49.598Z,2.70
2018-06-30T06:33:18.035Z,2.80
2018-06-30T06:35:46.503Z,2.53
2018-06-30T06:38:14.957Z,2.40
2018-06-30T06:40:43.514Z,2.30
2018-06-30T06:43:11.970Z,2.30
2018-06-30T06:45:40.437Z,2.40
2018-06-30T06:48:09.254Z,2.50
2018-06-30T06:50:37.718Z,2.30
2018-06-30T06:53:07.415Z,2.20
2018-06-30T06:55:36.423Z,2.40
2018-06-30T06:58:05.496Z,2.47
2018-06-30T07:00:34.508Z,2.50
2018-06-30T07:03:03.912Z,2.22
2018-06-30T07:05:33.014Z,2.20
2018-06-30T07:08:01.986Z,2.65
2018-06-30T07:10:31.006Z,2.30
2018-06-30T07:13:00.037Z,2.33
2018-06-30T07:15:29.065Z,2.45
2018-06-30T07:17:58.526Z,2.30
2018-06-30T07:20:27.572Z,2.02
2018-06-30T07:22:56.812Z,2.40
2018-06-30T07:25:26.164Z,2.27
2018-06-30T07:27:55.141Z,2.40
2018-06-30T07:30:24.167Z,2.72
2018-06-30T07:32:53.135Z,2.30
2018-06-30T07:35:22.156Z,2.50
2018-06-30T07:37:51.183Z,2.62
2018-06-30T07:40:20.242Z,2.92
2018-06-30T07:42:49.306Z,2.60
2018-06-30T07:45:18.297Z,2.47
2018-06-30T07:47:47.711Z,2.20
2018-06-30T07:50:16.729Z,2.37
2018-06-30T07:52:46.267Z,2.67
2018-06-30T07:55:15.299Z,2.35
2018-06-30T07:57:44.342Z,2.30
2018-06-30T08:00:13.767Z,2.15
2018-06-30T08:02:42.786Z,2.17
2018-06-30T08:05:11.757Z,2.20
2018-06-30T08:07:40.772Z,2.75
2018-06-30T08:10:09.804Z,2.30
2018-06-30T08:12:39.217Z,2.40
2018-06-30T08:15:08.315Z,2.27
2018-06-30T08:17:37.310Z,2.05
2018-06-30T08:20:08.211Z,2.20
2018-06-30T08:22:37.266Z,3.20
2018-06-30T08:25:06.571Z,2.20
2018-06-30T08:27:36.055Z,3.17
2018-06-30T08:30:06.083Z,2.20
2018-06-30T08:32:35.433Z,1.92
2018-06-30T08:35:04.498Z,2.20
2018-06-30T08:37:33.544Z,3.40
2018-06-30T08:40:02.581Z,2.02
2018-06-30T08:42:31.598Z,2.72
2018-06-30T08:45:00.641Z,2.40
2018-06-30T08:47:29.618Z,2.30
2018-06-30T08:49:59.288Z,2.17
2018-06-30T08:55:31.506Z,2.33
2018-06-30T08:58:00.667Z,2.20
2018-06-30T09:00:29.789Z,2.10
2018-06-30T09:02:58.802Z,1.90
2018-06-30T09:05:28.123Z,1.85
2018-06-30T09:07:57.532Z,2.10
2018-06-30T09:10:26.588Z,2.12
2018-06-30T09:12:55.621Z,2.10
2018-06-30T09:15:24.683Z,2.00
2018-06-30T09:17:54.042Z,1.80
2018-06-30T09:20:23.102Z,2.90
2018-06-30T09:22:52.103Z,3.50
2018-06-30T09:25:21.114Z,4.58
2018-06-30T09:27:50.168Z,3.22
2018-06-30T09:30:19.211Z,3.42
2018-06-30T09:32:48.211Z,2.10
2018-06-30T09:35:17.268Z,3.00
2018-06-30T09:37:46.346Z,3.47
2018-06-30T09:40:15.531Z,2.90
2018-06-30T09:42:44.534Z,3.10
2018-06-30T09:45:13.378Z,3.97
2018-06-30T09:47:41.884Z,2.30
2018-06-30T09:50:10.648Z,3.50
2018-06-30T09:52:39.083Z,2.40
2018-06-30T09:55:07.580Z,3.10
2018-06-30T09:57:36.375Z,2.30
2018-06-30T10:00:06.512Z,2.00
2018-06-30T10:02:35.299Z,2.03
2018-06-30T10:05:03.892Z,2.40
2018-06-30T10:07:32.315Z,3.60
2018-06-30T10:10:00.762Z,2.60
2018-06-30T10:12:29.264Z,5.10
2018-06-30T10:14:57.741Z,2.40
2018-06-30T10:17:26.227Z,1.80
2018-06-30T10:19:54.710Z,2.57
2018-06-30T10:22:24.052Z,2.07
2018-06-30T10:24:52.517Z,1.70
2018-06-30T10:27:20.972Z,2.80
2018-06-30T10:29:49.423Z,2.07
2018-06-30T10:32:17.876Z,2.60
2018-06-30T10:34:46.361Z,2.20
2018-06-30T10:37:14.840Z,2.23
2018-06-30T10:39:43.330Z,2.73
2018-06-30T10:42:11.842Z,1.50
2018-06-30T10:44:40.427Z,3.00
2018-06-30T10:47:08.922Z,6.30
2018-06-30T10:49:37.357Z,2.10
2018-06-30T10:52:05.824Z,1.50
2018-06-30T10:54:34.263Z,1.60
2018-06-30T10:57:02.721Z,2.33
2018-06-30T10:59:31.234Z,1.80
2018-06-30T11:01:59.683Z,2.27
2018-06-30T11:04:29.208Z,2.27
2018-06-30T11:06:57.660Z,1.90
2018-06-30T11:09:26.121Z,2.47
2018-06-30T11:11:54.563Z,1.50
2018-06-30T11:14:23.050Z,1.37
2018-06-30T11:16:51.933Z,1.30
2018-06-30T11:19:20.403Z,1.80
2018-06-30T11:21:48.896Z,0.97
2018-06-30T11:24:17.358Z,1.33
2018-06-30T11:26:46.299Z,1.70
2018-06-30T11:29:14.794Z,2.03
2018-06-30T11:31:43.237Z,1.83
2018-06-30T11:34:11.745Z,1.40
2018-06-30T11:36:40.231Z,1.80
2018-06-30T11:39:11.179Z,1.37
2018-06-30T11:41:39.988Z,1.33
2018-06-30T11:44:08.463Z,1.70
2018-06-30T11:46:37.423Z,1.87
2018-06-30T11:49:05.619Z,1.37
2018-06-30T11:51:34.492Z,4.00
2018-06-30T11:54:03.044Z,1.60
2018-06-30T11:56:31.710Z,1.97
2018-06-30T11:59:00.167Z,1.10
2018-06-30T12:01:28.618Z,2.03
2018-06-30T12:03:57.076Z,1.20
2018-06-30T12:06:26.282Z,1.00
2018-06-30T12:08:54.774Z,3.47
2018-06-30T12:11:22.919Z,3.67
2018-06-30T12:13:51.372Z,1.77
2018-06-30T12:16:19.855Z,1.63
2018-06-30T12:18:48.310Z,1.53
2018-06-30T12:21:16.843Z,0.93
2018-06-30T12:23:45.267Z,1.40
2018-06-30T12:26:13.734Z,1.20
2018-06-30T12:28:42.184Z,1.57
2018-06-30T12:31:10.710Z,1.10
2018-06-30T12:33:39.155Z,1.53
2018-06-30T12:36:07.988Z,1.30
2018-06-30T12:38:36.447Z,1.20
2018-06-30T12:41:05.157Z,1.60
2018-06-30T12:43:33.613Z,1.37
2018-06-30T12:46:02.107Z,1.40
2018-06-30T12:48:30.658Z,1.17
2018-06-30T12:50:59.476Z,1.27
2018-06-30T12:53:27.974Z,1.30
2018-06-30T12:55:56.162Z,1.33
2018-06-30T12:58:24.637Z,1.50
2018-06-30T13:00:53.107Z,0.73
2018-06-30T13:03:21.577Z,1.13
2018-06-30T13:05:50.082Z,1.03
2018-06-30T13:08:18.646Z,0.90
2018-06-30T13:10:47.303Z,0.83
2018-06-30T13:13:16.158Z,2.10
2018-06-30T13:15:44.640Z,1.57
2018-06-30T13:18:13.052Z,1.73
2018-06-30T13:20:41.899Z,1.50
2018-06-30T13:23:10.340Z,1.10
2018-06-30T13:25:38.780Z,1.20
2018-06-30T13:28:07.646Z,1.37
2018-06-30T13:30:36.216Z,1.70
2018-06-30T13:33:04.698Z,1.37
2018-06-30T13:35:33.150Z,1.20
2018-06-30T13:38:02.121Z,1.57
2018-06-30T13:40:31.220Z,1.20
2018-06-30T13:42:59.755Z,1.03
2018-06-30T13:45:28.362Z,1.73
2018-06-30T13:47:57.208Z,1.73
2018-06-30T13:50:25.797Z,1.97
2018-06-30T13:52:54.303Z,1.00
2018-06-30T13:55:22.810Z,1.00
2018-06-30T13:57:51.398Z,1.40
2018-06-30T14:00:19.891Z,1.50
2018-06-30T14:02:48.398Z,1.20
2018-06-30T14:05:17.027Z,1.20
2018-06-30T14:07:45.511Z,1.20
2018-06-30T14:10:15.877Z,1.03
2018-06-30T14:12:44.382Z,1.27
2018-06-30T14:15:13.406Z,1.17
2018-06-30T14:17:42.330Z,1.17
2018-06-30T14:20:10.981Z,2.30
2018-06-30T14:22:39.860Z,1.30
2018-06-30T14:25:08.739Z,1.37
2018-06-30T14:27:37.526Z,1.20
2018-06-30T14:30:08.480Z,1.40
2018-06-30T14:32:36.951Z,1.07
2018-06-30T14:35:05.642Z,1.00
2018-06-30T14:37:34.474Z,1.10
2018-06-30T14:40:03.004Z,1.57
2018-06-30T14:42:31.524Z,1.00
2018-06-30T14:45:00.279Z,3.17
2018-06-30T14:47:29.635Z,1.90
2018-06-30T14:49:58.543Z,1.33
2018-06-30T14:52:27.041Z,1.17
2018-06-30T14:54:56.331Z,1.57
2018-06-30T14:57:25.197Z,1.70
2018-06-30T14:59:54.666Z,1.10
2018-06-30T15:02:23.203Z,0.93
2018-06-30T15:04:51.771Z,1.20
2018-06-30T15:07:20.317Z,1.33
2018-06-30T15:09:48.894Z,3.70
2018-06-30T15:12:18.138Z,1.70
2018-06-30T15:14:46.714Z,1.50
2018-06-30T15:17:15.293Z,2.90
2018-06-30T15:19:43.808Z,4.67
2018-06-30T15:22:12.387Z,2.00
2018-06-30T15:24:40.912Z,1.90
2018-06-30T15:27:09.467Z,0.90
2018-06-30T15:29:38.006Z,2.33
2018-06-30T15:32:06.516Z,1.23
2018-06-30T15:34:35.060Z,2.07
2018-06-30T15:37:03.891Z,1.50
2018-06-30T15:39:32.516Z,1.00
2018-06-30T15:42:01.087Z,1.00
2018-06-30T15:44:29.672Z,1.17
2018-06-30T15:46:58.203Z,1.37
2018-06-30T15:49:26.714Z,0.97
2018-06-30T15:51:55.275Z,1.10
2018-06-30T15:54:24.804Z,1.10
2018-06-30T15:56:53.385Z,2.07
2018-06-30T15:59:22.875Z,1.00
2018-06-30T16:01:52.120Z,1.00
2018-06-30T16:04:20.647Z,1.00
2018-06-30T16:06:49.534Z,0.83
2018-06-30T16:09:18.074Z,1.10
2018-06-30T16:11:46.636Z,1.20
2018-06-30T16:14:15.136Z,1.20
2018-06-30T16:16:43.638Z,1.27
2018-06-30T16:19:12.139Z,1.00
2018-06-30T16:21:40.635Z,1.40
2018-06-30T16:24:09.139Z,1.33
2018-06-30T16:26:37.659Z,1.70
2018-06-30T16:29:06.251Z,1.63
2018-06-30T16:31:34.763Z,1.63
2018-06-30T16:34:03.333Z,1.20
2018-06-30T16:36:31.863Z,0.97
2018-06-30T16:39:00.032Z,1.00
2018-06-30T16:42:57.745Z,1.37
2018-06-30T16:45:26.247Z,1.20
2018-06-30T16:47:54.803Z,1.40
2018-06-30T16:50:23.283Z,0.70
2018-06-30T16:52:51.819Z,1.03
2018-06-30T16:55:20.311Z,0.90
2018-06-30T16:57:48.826Z,1.10
2018-06-30T17:00:17.692Z,0.70
2018-06-30T17:02:47.132Z,0.90
2018-06-30T17:05:15.647Z,1.17
2018-06-30T17:07:44.167Z,1.07
2018-06-30T17:10:12.655Z,0.90
2018-06-30T17:12:41.153Z,1.10
2018-06-30T17:15:10.448Z,1.40
2018-06-30T17:17:38.975Z,1.20
2018-06-30T17:20:07.507Z,0.93
2018-06-30T17:22:36.232Z,1.13
2018-06-30T17:25:05.144Z,4.63
2018-06-30T17:27:33.691Z,47.57
2018-06-30T17:30:02.211Z,47.67
2018-06-30T17:32:30.703Z,20.20
2018-06-30T17:34:59.206Z,5.60
2018-06-30T17:37:27.714Z,2.80
2018-06-30T17:39:56.227Z,5.37
2018-06-30T17:42:24.746Z,3.30
2018-06-30T17:44:53.257Z,1.47
2018-06-30T17:47:21.779Z,1.17
2018-06-30T17:49:50.849Z,2.30
2018-06-30T17:52:19.358Z,6.87
2018-06-30T17:54:47.863Z,5.60
2018-06-30T17:57:16.343Z,1.30
2018-06-30T17:59:44.870Z,1.10
2018-06-30T18:02:13.391Z,0.87
2018-06-30T18:04:41.906Z,1.17
2018-06-30T18:07:10.403Z,1.30
2018-06-30T18:09:38.927Z,1.23
2018-06-30T18:12:07.436Z,3.00
2018-06-30T18:14:35.946Z,1.10
2018-06-30T18:17:04.536Z,1.03
2018-06-30T18:19:33.077Z,1.27
2018-06-30T18:22:01.929Z,0.77
2018-06-30T18:24:30.439Z,1.10
2018-06-30T18:26:58.983Z,1.33
2018-06-30T18:29:27.555Z,0.80
2018-06-30T18:31:56.074Z,1.20
2018-06-30T18:34:24.958Z,1.10
2018-06-30T18:36:53.492Z,1.07
2018-06-30T18:39:22.085Z,1.43
2018-06-30T18:41:50.741Z,0.90
2018-06-30T18:44:19.345Z,1.27
2018-06-30T18:46:47.893Z,1.40
2018-06-30T18:49:16.783Z,1.00
2018-06-30T18:51:45.315Z,1.00
2018-06-30T18:54:13.879Z,1.20
2018-06-30T18:56:42.773Z,1.10
2018-06-30T18:59:11.306Z,1.37
2018-06-30T19:01:39.847Z,1.40
2018-06-30T19:04:09.101Z,1.00
2018-06-30T19:06:37.641Z,1.20
2018-06-30T19:09:08.684Z,1.63
2018-06-30T19:11:37.237Z,1.50
2018-06-30T19:14:06.613Z,1.80
2018-06-30T19:16:35.237Z,1.87
2018-06-30T19:19:03.827Z,1.60
2018-06-30T19:21:32.360Z,2.07
2018-06-30T19:24:00.841Z,1.70
2018-06-30T19:26:29.419Z,1.80
2018-06-30T19:28:57.978Z,2.13
2018-06-30T19:31:26.940Z,2.00
2018-06-30T19:33:55.430Z,2.30
2018-06-30T19:36:24.017Z,1.90
2018-06-30T19:38:52.708Z,2.10
2018-06-30T19:41:21.267Z,2.03
2018-06-30T19:43:49.783Z,1.93
2018-06-30T19:46:18.317Z,2.10
2018-06-30T19:48:46.831Z,1.67
2018-06-30T19:51:15.352Z,2.13
2018-06-30T19:53:43.849Z,1.70
2018-06-30T19:56:12.735Z,1.90
2018-06-30T19:58:41.289Z,1.90
2018-06-30T20:01:09.783Z,2.23
2018-06-30T20:03:38.312Z,2.20
2018-06-30T20:06:06.817Z,1.60
2018-06-30T20:08:35.352Z,1.70
2018-06-30T20:11:04.211Z,1.93
2018-06-30T20:13:32.731Z,1.40
2018-06-30T20:16:01.550Z,1.80
2018-06-30T20:18:30.096Z,1.60
2018-06-30T20:20:58.658Z,1.40
2018-06-30T20:23:27.376Z,1.60
2018-06-30T20:25:55.905Z,1.80
2018-06-30T20:28:24.448Z,1.30
2018-06-30T20:30:52.968Z,1.87
2018-06-30T20:33:21.859Z,1.70
2018-06-30T20:35:50.384Z,1.60
2018-06-30T20:38:18.927Z,2.03
2018-06-30T20:40:47.487Z,1.50
2018-06-30T20:43:16.059Z,1.47
2018-06-30T20:45:45.486Z,1.20
2018-06-30T20:48:14.115Z,1.33
2018-06-30T20:50:43.366Z,1.13
2018-06-30T20:53:12.296Z,1.20
2018-06-30T20:55:40.836Z,1.50
2018-06-30T20:58:09.375Z,1.20
2018-06-30T21:00:38.083Z,1.40
2018-06-30T21:03:07.016Z,1.47
2018-06-30T21:05:35.524Z,1.50
2018-06-30T21:08:04.442Z,1.83
2018-06-30T21:10:33.115Z,1.50
2018-06-30T21:13:01.646Z,1.20
2018-06-30T21:15:30.222Z,1.50
2018-06-30T21:17:58.735Z,0.83
2018-06-30T21:20:27.296Z,1.70
2018-06-30T21:22:55.784Z,1.80
2018-06-30T21:25:24.353Z,1.63
2018-06-30T21:27:52.866Z,1.37
2018-06-30T21:30:21.435Z,1.33
2018-06-30T21:32:50.127Z,1.40
2018-06-30T21:35:18.683Z,1.40
2018-06-30T21:37:47.216Z,1.30
2018-06-30T21:40:15.831Z,1.23
2018-06-30T21:42:44.315Z,1.30
2018-06-30T21:45:13.192Z,1.10
2018-06-30T21:47:41.724Z,1.70
2018-06-30T21:50:09.985Z,1.07
2018-06-30T21:52:38.668Z,1.30
2018-06-30T21:55:07.518Z,1.30
2018-06-30T21:57:36.051Z,1.33
2018-06-30T22:00:08.727Z,1.13
2018-06-30T22:02:37.252Z,1.47
2018-06-30T22:05:05.829Z,1.20
2018-06-30T22:07:34.413Z,1.70
2018-06-30T22:10:03.376Z,1.13
2018-06-30T22:12:31.942Z,1.27
2018-06-30T22:15:00.852Z,1.27
2018-06-30T22:17:29.407Z,1.90
2018-06-30T22:19:57.922Z,1.47
2018-06-30T22:22:26.825Z,1.33
2018-06-30T22:24:55.396Z,1.70
2018-06-30T22:27:23.980Z,1.50
2018-06-30T22:29:52.488Z,1.63
2018-06-30T22:32:21.088Z,1.20
2018-06-30T22:34:49.966Z,1.30
2018-06-30T22:37:20.468Z,1.00
2018-06-30T22:40:00.310Z,1.70
2018-06-30T22:42:28.812Z,1.30
2018-06-30T22:44:57.721Z,1.30
2018-06-30T22:47:26.276Z,1.57
2018-06-30T22:49:54.771Z,1.50
2018-06-30T22:52:23.420Z,1.63
2018-06-30T22:54:51.916Z,1.30
2018-06-30T22:57:20.427Z,1.20
2018-06-30T22:59:48.945Z,1.40
2018-06-30T23:02:17.473Z,1.20
2018-06-30T23:04:46.416Z,1.60
2018-06-30T23:07:14.964Z,1.70
2018-06-30T23:09:43.516Z,2.30
2018-06-30T23:12:12.380Z,1.10
2018-06-30T23:14:41.911Z,1.27
2018-06-30T23:17:10.447Z,1.30
2018-06-30T23:19:39.295Z,1.30
2018-06-30T23:22:08.137Z,1.27
2018-06-30T23:24:36.884Z,1.40
2018-06-30T23:27:05.887Z,1.47
2018-06-30T23:29:34.575Z,1.33
2018-06-30T23:32:03.987Z,1.27
2018-06-30T23:34:32.606Z,1.03
2018-06-30T23:37:01.347Z,1.60
2018-06-30T23:39:30.447Z,1.27
2018-06-30T23:41:59.017Z,1.47
2018-06-30T23:44:27.931Z,1.17
2018-06-30T23:46:56.459Z,1.40
2018-06-30T23:49:35.216Z,1.30
2018-06-30T23:52:03.858Z,1.33
2018-06-30T23:54:33.330Z,1.43
2018-06-30T23:57:01.832Z,1.70
2018-06-30T23:59:30.526Z,1.20
